Nearby METAR Reports for Burr Ridge, IL

 

KMDW - Chicago, Illinois, USA
Distance from station: ENE 8mi, 13km
Updated: Sat, 20-Oct-2018 8:53am MST
Partly cloudy
Partly cloudy
 Wind from W
Wind: W 28 mph , 44 km/h, Gust: 40 mph , 65 km/h
Temperature: 52°F , 11°C
Dew Point: 32°F , 0°C
Humidity: 47%
Barometer: 29.84 inHg , 1010.5 hPa
Clouds: Partly cloudy
Visibility: 10 miles , 16 km
Cloud details: Partly cloudy 4000 ft
Partly cloudy 7000 ft
2018/10/20 15:53 KMDW 201553Z 28024G35KT 10SM SCT040 SCT070 11/00 A2984 RMK AO2 PK WND 29035/1552 SLP105 T01110000
KLOT - Romeoville/Chi, Illinois, USA
Distance from station: SW 15mi, 24km
Updated: Sat, 20-Oct-2018 8:55am MST
Partly cloudy
Partly cloudy
 Wind from WNW
Wind: WNW 28 mph , 44 km/h, Gust: 38 mph , 61 km/h
Temperature: 52°F , 11°C
Dew Point: 36°F , 2°C
Humidity: 54%
Barometer: 29.86 inHg , 1011.2 hPa
Clouds: Partly cloudy
Visibility: 10 miles , 16 km
Cloud details: Partly cloudy 4000 ft
2018/10/20 15:55 KLOT 201555Z AUTO 30024G33KT 10SM SCT040 11/02 A2986 RMK AO2 T01060023
 
KORD - Chicago O'hare, Illinois, USA
Distance from station: N 16mi, 25km
Updated: Sat, 20-Oct-2018 8:51am MST
Partly cloudy
Partly cloudy
 Wind from WNW
Wind: WNW 22 mph , 35 km/h, Gust: 35 mph , 56 km/h
Temperature: 50°F , 10°C
Wind Chill: 43°F , 6°C
Dew Point: 34°F , 1°C
Humidity: 54%
Barometer: 29.84 inHg , 1010.5 hPa
Clouds: Partly cloudy
Visibility: 10 miles , 16 km
Cloud details: Partly cloudy 4300 ft
Partly cloudy 7000 ft
2018/10/20 15:51 KORD 201551Z 29019G30KT 10SM SCT043 SCT070 10/01 A2984 RMK AO2 PK WND 27031/1459 SLP104 T01000006
KDPA - Chicago/Dupage, Illinois, USA
Distance from station: WNW 21mi, 34km
Updated: Sat, 20-Oct-2018 8:52am MST
Mostly cloudy
Mostly cloudy
 Wind from WNW
Wind: WNW 25 mph , 41 km/h, Gust: 38 mph , 61 km/h
Temperature: 48°F , 9°C
Wind Chill: 40°F , 4°C
Dew Point: 34°F , 1°C
Humidity: 58%
Barometer: 29.85 inHg , 1010.8 hPa
Clouds: Mostly cloudy
Visibility: 10 miles , 16 km
Cloud details: Partly cloudy 4200 ft
Mostly cloudy 5000 ft
2018/10/20 15:52 KDPA 201552Z 30022G33KT 10SM SCT042 BKN050 09/01 A2985 RMK AO2 PK WND 29040/1525 SLP111 T00940006
 
KJOT - Joliet, Illinois, USA
Distance from station: SW 22mi, 36km
Updated: Sat, 20-Oct-2018 8:55am MST
Partly cloudy
Partly cloudy
 Wind from W
Wind: W 17 mph , 28 km/h, Gust: 26 mph , 43 km/h
Temperature: 54°F , 12°C
Dew Point: 36°F , 2°C
Humidity: 51%
Barometer: 29.87 inHg , 1011.5 hPa
Clouds: Partly cloudy
Visibility: 10 miles , 16 km
Cloud details: Partly cloudy 4200 ft
2018/10/20 15:55 KJOT 201555Z AUTO 28015G23KT 10SM SCT042 12/02 A2987 RMK AO2 T01160018
KIGQ - Chicago/Lansing, Illinois, USA
Distance from station: SE 24mi, 39km
Updated: Sat, 20-Oct-2018 8:55am MST
Clear
Clear
 Wind from W
Wind: W 18 mph , 30 km/h, Gust: 31 mph , 50 km/h
Temperature: 52°F , 11°C
Dew Point: 36°F , 2°C
Humidity: 54%
Barometer: 29.84 inHg , 1010.5 hPa
Clouds: Clear
Visibility: 10 miles , 16 km
2018/10/20 15:55 KIGQ 201555Z AUTO 27016G27KT 10SM CLR 11/02 A2984 RMK AO2 T01110021
 
KPWK - Palwaukee, Illinois, USA
Distance from station: N 25mi, 40km
Updated: Sat, 20-Oct-2018 8:52am MST
Mostly cloudy
Mostly cloudy
 Wind from WNW
Wind: WNW 21 mph , 33 km/h, Gust: 36 mph , 57 km/h
Temperature: 50°F , 10°C
Wind Chill: 43°F , 6°C
Dew Point: 30°F , -1°C
Humidity: 47%
Barometer: 29.84 inHg , 1010.5 hPa
Clouds: Mostly cloudy
Visibility: 10 miles , 16 km
Cloud details: Mostly cloudy 4100 ft
Mostly cloudy 6000 ft
2018/10/20 15:52 KPWK 201552Z 30018G31KT 10SM BKN041 BKN060 10/M01 A2984 RMK AO2 PK WND 30031/1548 SLP105 T01001006
KGYY - Gary Regional, Indiana, USA
Distance from station: ESE 27mi, 43km
Updated: Sat, 20-Oct-2018 8:45am MST
Few Clouds
Few Clouds
 Wind from W
Wind: W 26 mph , 43 km/h
Temperature: 54°F , 12°C
Dew Point: 36°F , 2°C
Humidity: 51%
Barometer: 29.84 inHg , 1010.5 hPa
Clouds: Few Clouds
Visibility: 20 miles , 32 km
Cloud details: Few Clouds 7000 ft
2018/10/20 15:45 KGYY 201545Z 26023KT 20SM FEW070 12/02 A2984
 
KARR - Chicago/Aurora, Illinois, USA
Distance from station: W 30mi, 48km
Updated: Sat, 20-Oct-2018 8:52am MST
Partly cloudy
Partly cloudy
 Wind from WNW
Wind: WNW 29 mph , 46 km/h, Gust: 38 mph , 61 km/h
Temperature: 52°F , 11°C
Dew Point: 34°F , 1°C
Humidity: 50%
Barometer: 29.86 inHg , 1011.2 hPa
Clouds: Partly cloudy
Visibility: 10 miles , 16 km
Cloud details: Partly cloudy 4500 ft
2018/10/20 15:52 KARR 201552Z 29025G33KT 10SM SCT045 11/01 A2986 RMK AO2 PK WND 28036/1514 SLP114 T01060011
KC09 - Morris-Washburn, Illinois, USA
Distance from station: SW 35mi, 56km
Updated: Sat, 20-Oct-2018 8:55am MST
Clear
Clear
 Wind from WNW
Wind: WNW 25 mph , 41 km/h, Gust: 38 mph , 61 km/h
Temperature: 52°F , 11°C
Dew Point: 34°F , 1°C
Humidity: 50%
Barometer: 29.87 inHg , 1011.5 hPa
Clouds: Clear
Visibility: 10 miles , 16 km
2018/10/20 15:55 KC09 201555Z AUTO 30022G33KT 10SM CLR 11/01 A2987 RMK AO2 T01110006
 
KDKB - De Kalb, Illinois, USA
Distance from station: WNW 43mi, 69km
Updated: Sat, 20-Oct-2018 8:55am MST
Mostly cloudy
Mostly cloudy
 Wind from WNW
Wind: WNW 23 mph , 37 km/h, Gust: 38 mph , 61 km/h
Temperature: 48°F , 9°C
Wind Chill: 40°F , 4°C
Dew Point: 30°F , -1°C
Humidity: 50%
Barometer: 29.89 inHg , 1012.2 hPa
Clouds: Mostly cloudy
Visibility: 10 miles , 16 km
Cloud details: Partly cloudy 4500 ft
Mostly cloudy 5000 ft
2018/10/20 15:55 KDKB 201555Z AUTO 30020G33KT 10SM SCT045 BKN050 09/M01 A2989 RMK AO2 T00931007
KUGN - Waukegan, Illinois, USA
Distance from station: N 46mi, 73km
Updated: Sat, 20-Oct-2018 8:55am MST
Mostly cloudy
Mostly cloudy
 Wind from WNW
Wind: WNW 17 mph , 28 km/h, Gust: 29 mph , 46 km/h
Temperature: 50°F , 10°C
Wind Chill: 44°F , 7°C
Dew Point: 32°F , 0°C
Humidity: 50%
Barometer: 29.80 inHg , 1009.1 hPa
Clouds: Mostly cloudy
Visibility: 10 miles , 16 km
Cloud details: Partly cloudy 4500 ft
Mostly cloudy 6000 ft
Mostly cloudy 7500 ft
2018/10/20 15:55 KUGN 201555Z 29015G25KT 10SM SCT045 BKN060 BKN075 10/00 A2980 RMK AO2 PK WND 28028/1524 SLP093 T01000000
 
KIKK - Kankakee, Illinois, USA
Distance from station: S 48mi, 77km
Updated: Sat, 20-Oct-2018 8:55am MST
Clear
Clear
 Wind from W
Wind: W 24 mph , 39 km/h, Gust: 30 mph , 48 km/h
Temperature: 54°F , 12°C
Dew Point: 37°F , 3°C
Humidity: 54%
Barometer: 29.89 inHg , 1012.2 hPa
Clouds: Clear
Visibility: 10 miles , 16 km
2018/10/20 15:55 KIKK 201555Z AUTO 28021G26KT 10SM CLR 12/03 A2989 RMK AO2 T01200028